createdAt,value
2022-12-28T00:01:19.882Z,40.03
2022-12-28T00:03:51.446Z,40.20
2022-12-28T00:06:23.373Z,40.70
2022-12-28T00:08:58.555Z,40.47
2022-12-28T00:11:31.212Z,40.28
2022-12-28T00:14:03.818Z,39.83
2022-12-28T00:16:44.729Z,39.92
2022-12-28T00:19:17.742Z,38.77
2022-12-28T00:21:49.170Z,41.65
2022-12-28T00:26:55.208Z,39.50
2022-12-28T00:29:25.761Z,39.33
2022-12-28T00:31:56.073Z,39.17
2022-12-28T00:34:27.225Z,37.17
2022-12-28T00:37:09.999Z,37.10
2022-12-28T00:39:44.503Z,36.17
2022-12-28T00:42:17.856Z,35.55
2022-12-28T00:44:48.110Z,33.35
2022-12-28T00:47:19.571Z,32.30
2022-12-28T00:49:50.100Z,31.90
2022-12-28T00:52:20.232Z,31.50
2022-12-28T00:54:50.489Z,31.17
2022-12-28T00:57:20.648Z,31.20
2022-12-28T00:59:50.870Z,29.63
2022-12-28T01:02:20.917Z,31.00
2022-12-28T01:04:52.210Z,28.15
2022-12-28T01:07:22.409Z,27.23
2022-12-28T01:09:52.642Z,26.55
2022-12-28T01:12:22.716Z,25.98
2022-12-28T01:14:52.938Z,26.92
2022-12-28T01:17:23.210Z,27.30
2022-12-28T01:19:54.158Z,26.08
2022-12-28T01:22:25.256Z,25.65
2022-12-28T01:24:55.922Z,26.17
2022-12-28T01:27:26.200Z,25.77
2022-12-28T01:29:58.757Z,25.48
2022-12-28T01:32:28.950Z,25.08
2022-12-28T01:34:59.189Z,24.33
2022-12-28T01:37:29.665Z,25.05
2022-12-28T01:42:31.699Z,24.20
2022-12-28T01:45:23.423Z,23.83
2022-12-28T01:47:57.305Z,24.88
2022-12-28T01:50:31.957Z,26.20
2022-12-28T01:53:07.420Z,25.05
2022-12-28T01:55:42.344Z,23.55
2022-12-28T01:58:26.577Z,23.38
2022-12-28T02:00:57.007Z,23.85
2022-12-28T02:03:30.799Z,23.02
2022-12-28T02:06:04.261Z,24.05
2022-12-28T02:08:49.342Z,23.85
2022-12-28T02:11:21.548Z,21.20
2022-12-28T02:13:53.993Z,21.70
2022-12-28T02:16:24.339Z,21.77
2022-12-28T02:18:55.204Z,21.20
2022-12-28T02:24:14.269Z,20.92
2022-12-28T02:26:55.739Z,20.77
2022-12-28T02:29:34.517Z,21.13
2022-12-28T02:32:32.320Z,20.15
2022-12-28T02:35:29.840Z,19.92
2022-12-28T02:38:26.005Z,20.52
2022-12-28T02:41:19.706Z,20.75
2022-12-28T02:43:50.270Z,20.57
2022-12-28T02:46:44.078Z,21.13
2022-12-28T02:49:37.435Z,21.40
2022-12-28T02:52:27.535Z,20.73
2022-12-28T02:55:36.822Z,20.13
2022-12-28T02:58:23.141Z,19.73
2022-12-28T03:01:02.409Z,21.15
2022-12-28T03:03:56.849Z,19.23
2022-12-28T03:06:57.783Z,19.85
2022-12-28T03:10:01.212Z,19.10
2022-12-28T03:12:51.199Z,20.27
2022-12-28T03:15:32.965Z,19.95
2022-12-28T03:18:24.667Z,20.02
2022-12-28T03:24:05.798Z,19.95
2022-12-28T03:26:58.773Z,20.02
2022-12-28T03:29:55.081Z,20.17
2022-12-28T03:32:25.366Z,19.70
2022-12-28T03:34:56.042Z,18.45
2022-12-28T03:37:37.305Z,19.77
2022-12-28T03:40:50.904Z,19.92
2022-12-28T03:43:48.314Z,19.35
2022-12-28T03:46:39.622Z,18.33
2022-12-28T03:49:10.802Z,18.08
2022-12-28T03:51:44.157Z,17.38
2022-12-28T03:54:19.109Z,17.58
2022-12-28T03:56:51.648Z,18.88
2022-12-28T03:59:28.719Z,16.73
2022-12-28T04:02:00.495Z,18.75
2022-12-28T04:04:32.834Z,17.02
2022-12-28T04:07:03.746Z,16.88
2022-12-28T04:09:34.729Z,16.67
2022-12-28T04:12:05.868Z,17.75
2022-12-28T04:14:55.933Z,16.67
2022-12-28T04:17:26.513Z,17.65
2022-12-28T04:19:57.281Z,16.02
2022-12-28T04:22:27.504Z,15.68
2022-12-28T04:24:58.341Z,16.37
2022-12-28T04:27:28.610Z,15.55
2022-12-28T04:30:04.352Z,15.68
2022-12-28T04:32:38.288Z,15.35
2022-12-28T04:35:09.178Z,15.20
2022-12-28T04:37:47.538Z,15.63
2022-12-28T04:40:17.739Z,14.48
2022-12-28T04:42:47.976Z,15.57
2022-12-28T04:45:22.016Z,13.88
2022-12-28T04:47:52.808Z,15.77
2022-12-28T04:50:22.954Z,15.90
2022-12-28T04:52:53.028Z,14.52
2022-12-28T04:55:32.873Z,14.05
2022-12-28T04:58:03.810Z,15.80
2022-12-28T05:00:34.045Z,15.40
2022-12-28T05:03:04.743Z,14.15
2022-12-28T05:05:35.822Z,13.38
2022-12-28T05:08:06.571Z,14.57
2022-12-28T05:10:37.018Z,13.20
2022-12-28T05:13:07.487Z,13.93
2022-12-28T05:15:37.661Z,13.90
2022-12-28T05:18:07.801Z,12.98
2022-12-28T05:20:37.970Z,12.95
2022-12-28T05:23:08.126Z,13.40
2022-12-28T05:25:38.242Z,11.32
2022-12-28T05:28:08.245Z,12.25
2022-12-28T05:30:38.297Z,11.88
2022-12-28T05:33:08.272Z,11.68
2022-12-28T05:35:38.360Z,11.80
2022-12-28T05:38:08.434Z,12.50
2022-12-28T05:40:38.638Z,11.18
2022-12-28T05:43:08.672Z,11.73
2022-12-28T05:45:38.779Z,11.30
2022-12-28T05:48:08.949Z,11.98
2022-12-28T05:50:39.138Z,11.25
2022-12-28T05:53:09.334Z,10.85
2022-12-28T05:55:39.503Z,10.48
2022-12-28T05:58:10.697Z,12.45
2022-12-28T06:00:40.823Z,11.10
2022-12-28T06:03:10.915Z,10.65
2022-12-28T06:05:43.341Z,10.65
2022-12-28T06:08:16.093Z,11.43
2022-12-28T06:10:49.656Z,11.13
2022-12-28T06:13:19.897Z,10.00
2022-12-28T06:15:50.111Z,10.23
2022-12-28T06:18:20.347Z,10.30
2022-12-28T06:20:56.802Z,11.20
2022-12-28T06:23:27.284Z,9.98
2022-12-28T06:25:57.527Z,10.10
2022-12-28T06:28:27.868Z,10.43
2022-12-28T06:31:26.121Z,11.65
2022-12-28T06:33:59.980Z,9.68
2022-12-28T06:36:34.406Z,11.38
2022-12-28T06:39:06.955Z,10.88
2022-12-28T06:41:37.453Z,10.27
2022-12-28T06:44:12.500Z,11.27
2022-12-28T06:46:43.191Z,10.77
2022-12-28T06:49:13.332Z,10.03
2022-12-28T06:51:44.098Z,10.23
2022-12-28T06:54:14.336Z,11.85
2022-12-28T06:56:44.618Z,10.27
2022-12-28T06:59:14.807Z,10.43
2022-12-28T07:01:48.527Z,10.40
2022-12-28T07:04:19.861Z,12.10
2022-12-28T07:06:50.359Z,10.32
2022-12-28T07:09:20.673Z,10.23
2022-12-28T07:11:53.589Z,11.17
2022-12-28T07:14:23.798Z,10.65
2022-12-28T07:16:53.820Z,10.43
2022-12-28T07:19:24.030Z,10.55
2022-12-28T07:21:54.140Z,11.13
2022-12-28T07:24:24.176Z,11.18
2022-12-28T07:26:54.184Z,10.65
2022-12-28T07:29:24.366Z,10.45
2022-12-28T07:31:54.549Z,11.05
2022-12-28T07:34:25.786Z,9.77
2022-12-28T07:36:55.992Z,10.20
2022-12-28T07:39:26.201Z,10.45
2022-12-28T07:41:56.417Z,10.25
2022-12-28T07:44:29.565Z,10.38
2022-12-28T07:47:00.434Z,10.50
2022-12-28T07:49:30.697Z,9.25
2022-12-28T07:52:00.789Z,10.32
2022-12-28T07:54:30.870Z,9.85
2022-12-28T07:57:00.993Z,9.93
2022-12-28T07:59:31.294Z,10.00
2022-12-28T08:02:02.433Z,10.23
2022-12-28T08:04:34.078Z,9.93
2022-12-28T08:07:04.259Z,10.77
2022-12-28T08:09:34.791Z,10.05
2022-12-28T08:12:04.969Z,9.05
2022-12-28T08:14:35.415Z,9.70
2022-12-28T08:17:05.657Z,9.33
2022-12-28T08:19:36.409Z,8.83
2022-12-28T08:22:06.548Z,9.48
2022-12-28T08:24:37.868Z,9.23
2022-12-28T08:29:37.695Z,9.45
2022-12-28T08:32:08.007Z,9.93
2022-12-28T08:34:38.005Z,9.43
2022-12-28T08:37:08.146Z,10.23
2022-12-28T08:39:38.151Z,10.05
2022-12-28T08:42:08.228Z,10.10
2022-12-28T08:44:38.246Z,9.38
2022-12-28T08:47:08.345Z,9.40
2022-12-28T08:49:38.497Z,9.98
2022-12-28T08:52:09.515Z,9.32
2022-12-28T08:54:40.061Z,8.95
2022-12-28T08:57:10.267Z,10.05
2022-12-28T08:59:40.622Z,9.88
2022-12-28T09:02:15.015Z,9.27
2022-12-28T09:04:45.384Z,9.82
2022-12-28T09:07:15.634Z,9.45
2022-12-28T09:09:46.007Z,9.43
2022-12-28T09:12:16.245Z,8.95
2022-12-28T09:14:46.483Z,8.80
2022-12-28T09:17:16.741Z,10.15
2022-12-28T09:19:47.023Z,9.48
2022-12-28T09:22:17.389Z,9.35
2022-12-28T09:24:47.617Z,9.00
2022-12-28T09:27:17.863Z,8.45
2022-12-28T09:29:48.031Z,9.50
2022-12-28T09:32:18.323Z,8.98
2022-12-28T09:34:48.782Z,9.50
2022-12-28T09:37:19.637Z,9.65
2022-12-28T09:39:50.636Z,10.93
2022-12-28T09:42:31.692Z,9.48
2022-12-28T09:45:10.615Z,9.63
2022-12-28T09:47:43.423Z,9.60
2022-12-28T09:50:35.391Z,9.52
2022-12-28T09:53:14.403Z,9.82
2022-12-28T09:55:53.855Z,9.23
2022-12-28T09:58:24.707Z,9.23
2022-12-28T10:01:01.844Z,10.67
2022-12-28T10:03:42.294Z,9.85
2022-12-28T10:06:23.470Z,9.75
2022-12-28T10:08:59.423Z,9.65
2022-12-28T10:11:39.674Z,9.45
2022-12-28T10:14:30.502Z,10.45
2022-12-28T10:17:00.686Z,8.50
2022-12-28T10:19:32.426Z,8.70
2022-12-28T10:22:16.202Z,10.05
2022-12-28T10:24:47.586Z,9.77
2022-12-28T10:27:32.917Z,9.43
2022-12-28T10:30:05.198Z,8.98
2022-12-28T10:33:02.104Z,10.05
2022-12-28T10:35:59.783Z,9.77
2022-12-28T10:38:34.194Z,9.15
2022-12-28T10:41:13.371Z,9.50
2022-12-28T10:43:46.385Z,9.05
2022-12-28T10:46:26.853Z,9.65
2022-12-28T10:49:01.369Z,9.02
2022-12-28T10:51:32.920Z,9.15
2022-12-28T10:54:03.898Z,9.65
2022-12-28T10:56:36.373Z,8.68
2022-12-28T10:59:15.401Z,9.75
2022-12-28T11:01:46.151Z,9.65
2022-12-28T11:04:27.245Z,9.25
2022-12-28T11:06:59.035Z,9.30
2022-12-28T11:09:32.463Z,10.07
2022-12-28T11:12:27.196Z,9.60
2022-12-28T11:14:58.599Z,9.93
2022-12-28T11:20:21.261Z,9.33
2022-12-28T11:22:51.634Z,10.73
2022-12-28T11:25:24.413Z,9.15
2022-12-28T11:27:54.780Z,9.85
2022-12-28T11:30:25.019Z,10.98
2022-12-28T11:32:59.471Z,10.43
2022-12-28T11:35:34.336Z,10.02
2022-12-28T11:38:06.836Z,10.18
2022-12-28T11:40:54.627Z,10.68
2022-12-28T11:43:35.240Z,11.05
2022-12-28T11:46:07.468Z,11.32
2022-12-28T11:48:46.821Z,11.15
2022-12-28T11:51:18.827Z,11.07
2022-12-28T11:53:49.002Z,11.63
2022-12-28T11:56:20.717Z,12.55
2022-12-28T11:59:04.405Z,12.43
2022-12-28T12:01:43.868Z,12.88
2022-12-28T12:04:30.886Z,13.20
2022-12-28T12:07:03.904Z,13.77
2022-12-28T12:09:35.210Z,13.73
2022-12-28T12:12:26.774Z,12.77
2022-12-28T12:14:59.961Z,13.43
2022-12-28T12:17:54.139Z,14.95
2022-12-28T12:21:02.282Z,14.73
2022-12-28T12:23:55.615Z,14.95
2022-12-28T12:26:41.991Z,15.95
2022-12-28T12:29:39.542Z,17.00
2022-12-28T12:32:26.547Z,17.10
2022-12-28T12:35:07.045Z,15.40
2022-12-28T12:37:46.436Z,15.85
2022-12-28T12:40:30.824Z,15.68
2022-12-28T12:43:03.643Z,16.38
2022-12-28T12:45:33.742Z,16.30
2022-12-28T12:48:20.139Z,16.02
2022-12-28T12:51:00.243Z,17.48
2022-12-28T12:53:56.091Z,17.00
2022-12-28T12:56:41.319Z,18.67
2022-12-28T12:59:41.579Z,16.67
2022-12-28T13:02:14.917Z,17.38
2022-12-28T13:04:48.202Z,17.23
2022-12-28T13:07:36.793Z,18.10
2022-12-28T13:10:07.703Z,17.27
2022-12-28T13:12:39.569Z,17.20
2022-12-28T13:15:12.890Z,18.15
2022-12-28T13:18:42.572Z,16.77
2022-12-28T13:21:12.863Z,16.40
2022-12-28T13:23:48.303Z,18.43
2022-12-28T13:26:19.399Z,18.23
2022-12-28T13:29:01.484Z,18.02
2022-12-28T13:31:50.229Z,19.08
2022-12-28T13:34:29.159Z,17.10
2022-12-28T13:37:02.247Z,17.23
2022-12-28T13:39:41.832Z,17.60
2022-12-28T13:42:37.953Z,17.92
2022-12-28T13:45:16.373Z,17.08
2022-12-28T13:47:51.352Z,17.30
2022-12-28T13:50:29.107Z,16.45
2022-12-28T13:53:18.438Z,17.05
2022-12-28T13:55:59.531Z,17.23
2022-12-28T13:58:38.491Z,17.00
2022-12-28T14:21:06.282Z,50.05
2022-12-28T14:23:39.320Z,19.00
2022-12-28T14:26:13.295Z,18.13
2022-12-28T14:28:48.009Z,18.63
2022-12-28T14:31:25.538Z,18.23
2022-12-28T14:33:57.959Z,19.15
2022-12-28T14:36:38.263Z,18.85
2022-12-28T14:39:09.949Z,19.52
2022-12-28T14:41:48.162Z,19.35
2022-12-28T14:44:26.824Z,20.40
2022-12-28T14:46:57.955Z,20.05
2022-12-28T14:49:30.815Z,24.90
2022-12-28T14:52:21.204Z,26.55
2022-12-28T14:54:54.020Z,38.58
2022-12-28T14:57:38.144Z,39.15
2022-12-28T15:00:23.136Z,28.90
2022-12-28T15:02:53.940Z,26.67
2022-12-28T15:05:37.468Z,35.03
2022-12-28T15:08:08.649Z,31.23
2022-12-28T15:10:43.625Z,31.52
2022-12-28T15:13:14.691Z,30.45
2022-12-28T15:15:44.941Z,28.17
2022-12-28T15:18:15.297Z,28.65
2022-12-28T15:20:45.452Z,26.52
2022-12-28T15:23:15.780Z,26.73
2022-12-28T15:25:46.280Z,26.63
2022-12-28T15:28:18.399Z,26.20
2022-12-28T15:30:48.857Z,26.50
2022-12-28T15:33:19.944Z,25.70
2022-12-28T15:35:50.218Z,24.55
2022-12-28T15:38:20.457Z,23.70
2022-12-28T15:40:50.501Z,23.70
2022-12-28T15:43:20.468Z,25.58
2022-12-28T15:46:02.478Z,25.73
2022-12-28T15:48:35.687Z,23.40
2022-12-28T15:51:06.011Z,24.92
2022-12-28T15:53:36.120Z,24.20
2022-12-28T15:56:06.310Z,22.45
2022-12-28T15:58:36.344Z,23.70
2022-12-28T16:01:07.006Z,25.48
2022-12-28T16:03:37.241Z,24.30
2022-12-28T16:06:09.495Z,24.02
2022-12-28T16:08:39.714Z,25.08
2022-12-28T16:11:21.408Z,24.02
2022-12-28T16:13:56.668Z,24.80
2022-12-28T16:16:28.054Z,25.33
2022-12-28T16:21:30.978Z,22.92
2022-12-28T16:24:02.601Z,23.65
2022-12-28T16:26:32.831Z,24.40
2022-12-28T16:29:04.481Z,22.85
2022-12-28T16:31:37.790Z,25.98
2022-12-28T16:34:15.573Z,23.38
2022-12-28T16:36:48.378Z,23.35
2022-12-28T16:39:20.878Z,22.65
2022-12-28T16:41:51.074Z,22.73
2022-12-28T16:44:23.648Z,23.30
2022-12-28T16:46:58.709Z,22.80
2022-12-28T16:49:29.973Z,22.80
2022-12-28T16:54:30.621Z,23.13
2022-12-28T16:57:01.033Z,23.03
2022-12-28T16:59:31.964Z,24.63
2022-12-28T17:02:02.506Z,23.95
2022-12-28T17:04:32.849Z,22.57
2022-12-28T17:07:02.836Z,25.42
2022-12-28T17:09:32.871Z,24.00
2022-12-28T17:12:03.136Z,24.08
2022-12-28T17:14:37.782Z,23.15
2022-12-28T17:17:09.058Z,24.52
2022-12-28T17:19:39.349Z,23.45
2022-12-28T17:22:09.572Z,24.23
2022-12-28T17:24:39.829Z,23.33
2022-12-28T17:27:15.518Z,25.08
2022-12-28T17:29:49.152Z,22.45
2022-12-28T17:32:19.906Z,25.25
2022-12-28T17:34:50.162Z,23.63
2022-12-28T17:37:20.368Z,24.15
2022-12-28T17:39:50.820Z,23.30
2022-12-28T17:42:21.058Z,23.30
2022-12-28T17:44:51.408Z,24.88
2022-12-28T17:47:21.607Z,23.73
2022-12-28T17:49:51.834Z,22.73
2022-12-28T17:52:24.134Z,23.70
2022-12-28T17:54:54.378Z,24.90
2022-12-28T17:57:24.503Z,25.15
2022-12-28T17:59:54.599Z,24.13
2022-12-28T18:02:25.416Z,25.70
2022-12-28T18:04:55.893Z,24.52
2022-12-28T18:07:25.959Z,25.35
2022-12-28T18:09:55.970Z,24.38
2022-12-28T18:12:25.959Z,26.30
2022-12-28T18:14:55.972Z,25.27
2022-12-28T18:17:26.069Z,25.77
2022-12-28T18:19:58.078Z,26.17
2022-12-28T18:22:28.386Z,25.65
2022-12-28T18:24:58.529Z,25.70
2022-12-28T18:27:28.587Z,25.23
2022-12-28T18:29:58.680Z,25.27
2022-12-28T18:32:29.143Z,24.63
2022-12-28T18:34:59.436Z,24.60
2022-12-28T18:37:29.941Z,24.38
2022-12-28T18:40:00.148Z,25.15
2022-12-28T18:42:30.519Z,24.58
2022-12-28T18:45:00.762Z,24.48
2022-12-28T18:47:36.233Z,23.98
2022-12-28T18:50:06.730Z,23.77
2022-12-28T18:52:38.058Z,23.80
2022-12-28T18:55:08.857Z,24.67
2022-12-28T18:57:39.185Z,24.77
2022-12-28T19:00:11.369Z,25.88
2022-12-28T19:02:41.709Z,24.65
2022-12-28T19:05:12.083Z,28.48
2022-12-28T19:07:47.263Z,24.92
2022-12-28T19:10:19.810Z,25.45
2022-12-28T19:12:50.218Z,24.33
2022-12-28T19:15:21.378Z,25.60
2022-12-28T19:17:51.608Z,25.42
2022-12-28T19:20:22.761Z,25.70
2022-12-28T19:22:53.809Z,27.15
2022-12-28T19:25:23.890Z,25.55
2022-12-28T19:27:54.245Z,26.45
2022-12-28T19:30:24.635Z,25.45
2022-12-28T19:32:56.796Z,25.02
2022-12-28T19:35:27.383Z,25.50
2022-12-28T19:37:57.595Z,25.37
2022-12-28T19:40:27.602Z,26.65
2022-12-28T19:42:57.766Z,26.15
2022-12-28T19:45:27.924Z,26.88
2022-12-28T19:47:58.117Z,27.65
2022-12-28T19:50:28.293Z,25.58
2022-12-28T19:52:58.328Z,25.90
2022-12-28T19:55:28.583Z,27.45
2022-12-28T19:57:58.829Z,26.15
2022-12-28T20:00:29.126Z,27.15
2022-12-28T20:02:59.457Z,27.45
2022-12-28T20:05:31.543Z,29.42
2022-12-28T20:08:01.572Z,28.15
2022-12-28T20:10:32.321Z,28.45
2022-12-28T20:13:03.304Z,28.95
2022-12-28T20:15:33.547Z,28.98
2022-12-28T20:18:03.808Z,29.38
2022-12-28T20:21:08.888Z,28.98
2022-12-28T20:23:24.137Z,28.17
2022-12-28T20:25:56.425Z,27.25
2022-12-28T20:28:26.939Z,27.05
2022-12-28T20:31:03.417Z,27.70
2022-12-28T20:33:35.647Z,27.30
2022-12-28T20:36:13.420Z,28.92
2022-12-28T20:38:43.889Z,29.13
2022-12-28T20:41:42.287Z,27.55
2022-12-28T20:44:18.207Z,28.20
2022-12-28T20:46:48.427Z,28.73
2022-12-28T20:49:19.810Z,28.40
2022-12-28T20:54:21.690Z,28.00
2022-12-28T20:56:55.111Z,28.50
2022-12-28T20:59:27.776Z,28.33
2022-12-28T21:01:58.162Z,28.17
2022-12-28T21:04:29.043Z,27.40
2022-12-28T21:06:59.672Z,27.88
2022-12-28T21:09:30.040Z,29.10
2022-12-28T21:12:00.208Z,29.40
2022-12-28T21:14:30.380Z,27.85
2022-12-28T21:17:00.585Z,28.73
2022-12-28T21:19:30.740Z,29.73
2022-12-28T21:22:00.716Z,29.48
2022-12-28T21:24:30.757Z,27.58
2022-12-28T21:27:01.023Z,28.83
2022-12-28T21:29:31.312Z,28.60
2022-12-28T21:32:01.428Z,31.52
2022-12-28T21:34:32.487Z,29.85
2022-12-28T21:37:22.649Z,28.58
2022-12-28T21:39:54.103Z,27.55
2022-12-28T21:44:53.878Z,29.85
2022-12-28T21:47:25.618Z,29.70
2022-12-28T21:49:56.370Z,27.85
2022-12-28T21:52:26.469Z,28.93
2022-12-28T21:54:56.445Z,27.88
2022-12-28T21:57:26.740Z,28.15
2022-12-28T21:59:57.315Z,30.40
2022-12-28T22:02:50.609Z,29.70
2022-12-28T22:05:39.427Z,30.00
2022-12-28T22:08:28.621Z,29.63
2022-12-28T22:11:17.972Z,30.73
2022-12-28T22:13:48.164Z,29.67
2022-12-28T22:16:18.265Z,31.15
2022-12-28T22:19:04.120Z,29.15
2022-12-28T22:21:35.008Z,31.13
2022-12-28T22:24:05.276Z,31.77
2022-12-28T22:26:35.400Z,30.77
2022-12-28T22:29:06.037Z,30.10
2022-12-28T22:31:36.435Z,31.60
2022-12-28T22:34:07.506Z,33.40
2022-12-28T22:36:38.308Z,33.08
2022-12-28T22:39:08.503Z,31.83
2022-12-28T22:41:38.513Z,32.25
2022-12-28T22:44:08.571Z,31.45
2022-12-28T22:46:38.639Z,31.85
2022-12-28T22:49:08.980Z,32.17
2022-12-28T22:51:39.339Z,31.73
2022-12-28T22:54:09.916Z,32.83
2022-12-28T22:57:16.436Z,507.77
2022-12-28T22:59:46.733Z,494.33
2022-12-28T23:02:17.245Z,148.35
2022-12-28T23:04:47.530Z,33.50
2022-12-28T23:07:18.139Z,34.25
2022-12-28T23:09:48.407Z,32.67
2022-12-28T23:12:18.689Z,32.60
2022-12-28T23:15:07.419Z,33.80
2022-12-28T23:17:37.628Z,31.67
2022-12-28T23:20:26.993Z,32.53
2022-12-28T23:23:15.583Z,32.97
2022-12-28T23:26:04.541Z,31.48
2022-12-28T23:28:38.073Z,32.03
2022-12-28T23:31:08.384Z,32.40
2022-12-28T23:33:40.597Z,32.70
2022-12-28T23:36:12.250Z,34.53
2022-12-28T23:41:30.361Z,33.22
2022-12-28T23:44:00.573Z,31.38
2022-12-28T23:46:30.898Z,34.13
2022-12-28T23:49:01.215Z,36.40
2022-12-28T23:51:31.294Z,35.15
2022-12-28T23:54:01.545Z,36.13
2022-12-28T23:56:31.791Z,36.55
2022-12-28T23:59:01.926Z,36.25
